sensor_id;sensor_type;location;lat;lon;timestamp;pressure;altitude;pressure_sealevel;temperature;humidity
63009;BME280;49099;28.428;-16.488;2023-06-04T00:00:02;98480.63;;;22.92;59.45
63009;BME280;49099;28.428;-16.488;2023-06-04T00:02:30;98484.03;;;22.89;59.45
63009;BME280;49099;28.428;-16.488;2023-06-04T00:04:57;98486.75;;;22.89;59.42
63009;BME280;49099;28.428;-16.488;2023-06-04T00:07:24;98489.44;;;22.89;59.50
63009;BME280;49099;28.428;-16.488;2023-06-04T00:09:52;98490.66;;;22.92;59.48
63009;BME280;49099;28.428;-16.488;2023-06-04T00:12:19;98479.41;;;22.90;59.28
63009;BME280;49099;28.428;-16.488;2023-06-04T00:14:47;98468.94;;;22.88;59.31
63009;BME280;49099;28.428;-16.488;2023-06-04T00:17:14;98472.09;;;22.90;59.36
63009;BME280;49099;28.428;-16.488;2023-06-04T00:19:41;98473.66;;;22.91;59.03
63009;BME280;49099;28.428;-16.488;2023-06-04T00:22:08;98465.97;;;22.93;58.57
63009;BME280;49099;28.428;-16.488;2023-06-04T00:24:37;98468.25;;;22.91;58.58
63009;BME280;49099;28.428;-16.488;2023-06-04T00:27:07;98475.34;;;22.96;58.28
63009;BME280;49099;28.428;-16.488;2023-06-04T00:29:35;98486.16;;;22.96;58.27
63009;BME280;49099;28.428;-16.488;2023-06-04T00:32:02;98483.78;;;22.94;57.80
63009;BME280;49099;28.428;-16.488;2023-06-04T00:34:30;98487.25;;;22.95;57.93
63009;BME280;49099;28.428;-16.488;2023-06-04T00:36:57;98481.41;;;22.93;57.72
63009;BME280;49099;28.428;-16.488;2023-06-04T00:39:24;98473.66;;;22.91;57.76
63009;BME280;49099;28.428;-16.488;2023-06-04T00:41:51;98474.78;;;22.90;58.06
63009;BME280;49099;28.428;-16.488;2023-06-04T00:44:19;98472.53;;;22.92;58.04
63009;BME280;49099;28.428;-16.488;2023-06-04T00:46:48;98457.88;;;22.93;58.04
63009;BME280;49099;28.428;-16.488;2023-06-04T00:49:16;98450.66;;;22.97;57.36
63009;BME280;49099;28.428;-16.488;2023-06-04T00:51:43;98445.25;;;22.97;57.29
63009;BME280;49099;28.428;-16.488;2023-06-04T00:54:12;98434.41;;;22.97;57.19
63009;BME280;49099;28.428;-16.488;2023-06-04T00:56:39;98434.41;;;22.97;56.93
63009;BME280;49099;28.428;-16.488;2023-06-04T00:59:07;98439.63;;;22.90;57.52
63009;BME280;49099;28.428;-16.488;2023-06-04T01:01:51;98426.34;;;22.85;57.82
63009;BME280;49099;28.428;-16.488;2023-06-04T01:04:37;98415.44;;;22.82;58.21
63009;BME280;49099;28.428;-16.488;2023-06-04T01:07:07;98416.09;;;22.78;58.34
63009;BME280;49099;28.428;-16.488;2023-06-04T01:09:36;98409.91;;;22.78;58.20
63009;BME280;49099;28.428;-16.488;2023-06-04T01:12:05;98401.00;;;22.77;58.71
63009;BME280;49099;28.428;-16.488;2023-06-04T01:14:33;98401.44;;;22.79;58.98
63009;BME280;49099;28.428;-16.488;2023-06-04T01:17:21;98386.81;;;22.80;58.97
63009;BME280;49099;28.428;-16.488;2023-06-04T01:25:24;98394.47;;;22.78;59.28
63009;BME280;49099;28.428;-16.488;2023-06-04T01:27:56;98397.53;;;22.77;58.76
63009;BME280;49099;28.428;-16.488;2023-06-04T01:30:30;98400.59;;;22.75;59.01
63009;BME280;49099;28.428;-16.488;2023-06-04T01:33:00;98400.59;;;22.75;58.67
63009;BME280;49099;28.428;-16.488;2023-06-04T01:35:28;98399.78;;;22.75;58.08
63009;BME280;49099;28.428;-16.488;2023-06-04T01:37:55;98395.06;;;22.72;57.91
63009;BME280;49099;28.428;-16.488;2023-06-04T01:40:23;98391.16;;;22.69;57.94
63009;BME280;49099;28.428;-16.488;2023-06-04T01:42:52;98383.28;;;22.64;58.14
63009;BME280;49099;28.428;-16.488;2023-06-04T01:45:21;98377.00;;;22.60;57.74
63009;BME280;49099;28.428;-16.488;2023-06-04T01:47:49;98373.75;;;22.55;57.29
63009;BME280;49099;28.428;-16.488;2023-06-04T01:50:16;98362.75;;;22.47;57.02
63009;BME280;49099;28.428;-16.488;2023-06-04T01:52:44;98360.31;;;22.42;56.45
63009;BME280;49099;28.428;-16.488;2023-06-04T01:55:14;98354.22;;;22.45;56.37
63009;BME280;49099;28.428;-16.488;2023-06-04T01:57:42;98359.03;;;22.52;56.09
63009;BME280;49099;28.428;-16.488;2023-06-04T02:00:11;98349.78;;;22.53;55.90
63009;BME280;49099;28.428;-16.488;2023-06-04T02:02:41;98353.63;;;22.52;56.22
63009;BME280;49099;28.428;-16.488;2023-06-04T02:05:09;98360.03;;;22.47;56.04
63009;BME280;49099;28.428;-16.488;2023-06-04T02:07:43;98362.75;;;22.47;56.42
63009;BME280;49099;28.428;-16.488;2023-06-04T02:10:16;98358.91;;;22.48;56.37
63009;BME280;49099;28.428;-16.488;2023-06-04T02:15:25;98357.72;;;22.62;56.51
63009;BME280;49099;28.428;-16.488;2023-06-04T02:18:11;98362.47;;;22.65;57.08
63009;BME280;49099;28.428;-16.488;2023-06-04T02:20:45;98350.84;;;22.64;57.18
63009;BME280;49099;28.428;-16.488;2023-06-04T02:23:14;98342.41;;;22.66;56.93
63009;BME280;49099;28.428;-16.488;2023-06-04T02:25:42;98326.06;;;22.62;56.42
63009;BME280;49099;28.428;-16.488;2023-06-04T02:28:13;98326.19;;;22.66;55.92
63009;BME280;49099;28.428;-16.488;2023-06-04T02:30:41;98321.44;;;22.63;55.11
63009;BME280;49099;28.428;-16.488;2023-06-04T02:33:08;98312.13;;;22.60;54.85
63009;BME280;49099;28.428;-16.488;2023-06-04T02:35:37;98309.00;;;22.58;54.43
63009;BME280;49099;28.428;-16.488;2023-06-04T02:38:04;98312.00;;;22.57;53.96
63009;BME280;49099;28.428;-16.488;2023-06-04T02:40:32;98316.56;;;22.52;52.64
63009;BME280;49099;28.428;-16.488;2023-06-04T02:42:59;98321.53;;;22.50;52.29
63009;BME280;49099;28.428;-16.488;2023-06-04T02:45:26;98324.84;;;22.44;51.86
63009;BME280;49099;28.428;-16.488;2023-06-04T02:47:55;98316.19;;;22.38;52.10
63009;BME280;49099;28.428;-16.488;2023-06-04T02:50:22;98321.59;;;22.38;52.64
63009;BME280;49099;28.428;-16.488;2023-06-04T02:52:49;98329.03;;;22.41;53.69
63009;BME280;49099;28.428;-16.488;2023-06-04T02:55:17;98337.13;;;22.41;53.19
63009;BME280;49099;28.428;-16.488;2023-06-04T02:57:44;98335.28;;;22.45;53.61
63009;BME280;49099;28.428;-16.488;2023-06-04T03:00:12;98335.72;;;22.47;54.20
63009;BME280;49099;28.428;-16.488;2023-06-04T03:02:45;98337.41;;;22.52;54.41
63009;BME280;49099;28.428;-16.488;2023-06-04T03:05:14;98337.28;;;22.48;54.31
63009;BME280;49099;28.428;-16.488;2023-06-04T03:07:43;98344.03;;;22.55;54.29
63009;BME280;49099;28.428;-16.488;2023-06-04T03:10:12;98343.59;;;22.52;54.33
63009;BME280;49099;28.428;-16.488;2023-06-04T03:12:40;98333.38;;;22.46;54.53
63009;BME280;49099;28.428;-16.488;2023-06-04T03:15:07;98340.25;;;22.43;54.56
63009;BME280;49099;28.428;-16.488;2023-06-04T03:17:35;98341.41;;;22.42;54.12
63009;BME280;49099;28.428;-16.488;2023-06-04T03:20:02;98337.81;;;22.38;54.58
63009;BME280;49099;28.428;-16.488;2023-06-04T03:22:31;98342.78;;;22.36;54.61
63009;BME280;49099;28.428;-16.488;2023-06-04T03:25:01;98343.22;;;22.38;55.11
63009;BME280;49099;28.428;-16.488;2023-06-04T03:27:30;98323.41;;;22.34;55.16
63009;BME280;49099;28.428;-16.488;2023-06-04T03:29:58;98336.31;;;22.41;55.04
63009;BME280;49099;28.428;-16.488;2023-06-04T03:32:25;98330.13;;;22.40;55.02
63009;BME280;49099;28.428;-16.488;2023-06-04T03:34:52;98330.91;;;22.41;54.64
63009;BME280;49099;28.428;-16.488;2023-06-04T03:37:19;98335.53;;;22.40;54.55
63009;BME280;49099;28.428;-16.488;2023-06-04T03:39:47;98334.75;;;22.40;54.46
63009;BME280;49099;28.428;-16.488;2023-06-04T03:42:14;98320.44;;;22.39;55.33
63009;BME280;49099;28.428;-16.488;2023-06-04T03:44:41;98329.34;;;22.40;55.77
63009;BME280;49099;28.428;-16.488;2023-06-04T03:47:08;98322.72;;;22.37;56.15
63009;BME280;49099;28.428;-16.488;2023-06-04T03:49:35;98328.91;;;22.38;56.22
63009;BME280;49099;28.428;-16.488;2023-06-04T03:52:03;98328.47;;;22.36;56.46
63009;BME280;49099;28.428;-16.488;2023-06-04T03:54:30;98329.03;;;22.41;56.44
63009;BME280;49099;28.428;-16.488;2023-06-04T03:56:57;98328.56;;;22.39;56.61
63009;BME280;49099;28.428;-16.488;2023-06-04T03:59:24;98337.13;;;22.41;56.58
63009;BME280;49099;28.428;-16.488;2023-06-04T04:01:51;98336.78;;;22.43;56.22
63009;BME280;49099;28.428;-16.488;2023-06-04T04:04:19;98339.13;;;22.44;56.08
63009;BME280;49099;28.428;-16.488;2023-06-04T04:06:47;98338.00;;;22.45;56.17
63009;BME280;49099;28.428;-16.488;2023-06-04T04:09:15;98336.44;;;22.44;56.45
63009;BME280;49099;28.428;-16.488;2023-06-04T04:11:42;98332.16;;;22.43;56.79
63009;BME280;49099;28.428;-16.488;2023-06-04T04:14:09;98342.53;;;22.41;57.23
63009;BME280;49099;28.428;-16.488;2023-06-04T04:16:36;98339.13;;;22.44;57.16
63009;BME280;49099;28.428;-16.488;2023-06-04T04:19:03;98334.84;;;22.43;56.24
63009;BME280;49099;28.428;-16.488;2023-06-04T04:21:30;98331.53;;;22.34;54.20
63009;BME280;49099;28.428;-16.488;2023-06-04T04:23:58;98329.94;;;22.33;54.67
63009;BME280;49099;28.428;-16.488;2023-06-04T04:26:25;98328.81;;;22.34;55.28
63009;BME280;49099;28.428;-16.488;2023-06-04T04:28:54;98326.78;;;22.31;54.98
63009;BME280;49099;28.428;-16.488;2023-06-04T04:31:26;98328.38;;;22.32;54.13
63009;BME280;49099;28.428;-16.488;2023-06-04T04:33:57;98332.56;;;22.30;53.32
63009;BME280;49099;28.428;-16.488;2023-06-04T04:36:24;98322.09;;;22.28;52.67
63009;BME280;49099;28.428;-16.488;2023-06-04T04:38:53;98312.06;;;22.29;49.76
63009;BME280;49099;28.428;-16.488;2023-06-04T04:41:25;98318.25;;;22.29;48.17
63009;BME280;49099;28.428;-16.488;2023-06-04T04:43:53;98305.00;;;22.24;50.58
63009;BME280;49099;28.428;-16.488;2023-06-04T04:46:21;98314.66;;;22.25;52.18
63009;BME280;49099;28.428;-16.488;2023-06-04T04:48:48;98315.91;;;22.28;51.83
63009;BME280;49099;28.428;-16.488;2023-06-04T04:51:15;98317.47;;;22.29;52.13
63009;BME280;49099;28.428;-16.488;2023-06-04T04:53:43;98323.66;;;22.29;50.80
63009;BME280;49099;28.428;-16.488;2023-06-04T04:56:10;98320.75;;;22.22;50.30
63009;BME280;49099;28.428;-16.488;2023-06-04T04:58:37;98325.47;;;22.25;49.44
63009;BME280;49099;28.428;-16.488;2023-06-04T05:01:04;98330.88;;;22.25;49.52
63009;BME280;49099;28.428;-16.488;2023-06-04T05:03:32;98336.97;;;22.22;50.54
63009;BME280;49099;28.428;-16.488;2023-06-04T05:05:59;98333.13;;;22.23;51.33
63009;BME280;49099;28.428;-16.488;2023-06-04T05:08:26;98337.41;;;22.24;50.85
63009;BME280;49099;28.428;-16.488;2023-06-04T05:10:53;98334.72;;;22.24;50.39
63009;BME280;49099;28.428;-16.488;2023-06-04T05:13:21;98332.13;;;22.28;50.20
63009;BME280;49099;28.428;-16.488;2023-06-04T05:15:49;98324.69;;;22.24;50.48
63009;BME280;49099;28.428;-16.488;2023-06-04T05:18:20;98332.47;;;22.26;49.87
63009;BME280;49099;28.428;-16.488;2023-06-04T05:20:47;98323.03;;;22.20;49.97
63009;BME280;49099;28.428;-16.488;2023-06-04T05:23:15;98320.41;;;22.23;50.59
63009;BME280;49099;28.428;-16.488;2023-06-04T05:25:42;98314.22;;;22.23;46.10
63009;BME280;49099;28.428;-16.488;2023-06-04T05:28:09;98316.50;;;22.21;46.08
63009;BME280;49099;28.428;-16.488;2023-06-04T05:30:37;98305.06;;;22.12;42.39
63009;BME280;49099;28.428;-16.488;2023-06-04T05:33:08;98310.81;;;22.10;43.96
63009;BME280;49099;28.428;-16.488;2023-06-04T05:35:48;98302.25;;;22.08;49.05
63009;BME280;49099;28.428;-16.488;2023-06-04T05:38:15;98300.78;;;22.11;48.82
63009;BME280;49099;28.428;-16.488;2023-06-04T05:40:44;98294.69;;;22.14;49.84
63009;BME280;49099;28.428;-16.488;2023-06-04T05:43:12;98298.28;;;22.18;50.70
63009;BME280;49099;28.428;-16.488;2023-06-04T05:45:40;98295.59;;;22.18;51.33
63009;BME280;49099;28.428;-16.488;2023-06-04T05:48:07;98282.66;;;22.11;50.91
63009;BME280;49099;28.428;-16.488;2023-06-04T05:50:35;98281.63;;;22.16;51.59
63009;BME280;49099;28.428;-16.488;2023-06-04T05:53:02;98289.47;;;22.21;52.37
63009;BME280;49099;28.428;-16.488;2023-06-04T05:55:29;98290.25;;;22.21;51.69
63009;BME280;49099;28.428;-16.488;2023-06-04T05:57:56;98287.00;;;22.16;50.77
63009;BME280;49099;28.428;-16.488;2023-06-04T06:00:24;98299.59;;;22.24;50.66
63009;BME280;49099;28.428;-16.488;2023-06-04T06:02:51;98304.31;;;22.27;49.48
63009;BME280;49099;28.428;-16.488;2023-06-04T06:05:19;98306.91;;;22.23;50.84
63009;BME280;49099;28.428;-16.488;2023-06-04T06:07:47;98300.16;;;22.17;52.00
63009;BME280;49099;28.428;-16.488;2023-06-04T06:10:15;98307.06;;;22.15;52.08
63009;BME280;49099;28.428;-16.488;2023-06-04T06:12:42;98316.50;;;22.21;51.72
63009;BME280;49099;28.428;-16.488;2023-06-04T06:15:09;98321.19;;;22.24;49.74
63009;BME280;49099;28.428;-16.488;2023-06-04T06:17:38;98334.34;;;22.25;47.25
63009;BME280;49099;28.428;-16.488;2023-06-04T06:20:05;98332.00;;;22.24;45.10
63009;BME280;49099;28.428;-16.488;2023-06-04T06:22:34;98329.81;;;22.14;44.96
63009;BME280;49099;28.428;-16.488;2023-06-04T06:25:05;98342.41;;;22.10;44.70
63009;BME280;49099;28.428;-16.488;2023-06-04T06:27:33;98350.28;;;22.15;46.18
63009;BME280;49099;28.428;-16.488;2023-06-04T06:30:00;98356.59;;;22.19;47.14
63009;BME280;49099;28.428;-16.488;2023-06-04T06:32:27;98362.78;;;22.19;50.07
63009;BME280;49099;28.428;-16.488;2023-06-04T06:34:55;98368.06;;;22.16;52.28
63009;BME280;49099;28.428;-16.488;2023-06-04T06:37:22;98372.25;;;22.13;53.36
63009;BME280;49099;28.428;-16.488;2023-06-04T06:39:49;98380.44;;;22.17;53.48
63009;BME280;49099;28.428;-16.488;2023-06-04T06:42:17;98395.28;;;22.23;54.14
63009;BME280;49099;28.428;-16.488;2023-06-04T06:44:45;98398.53;;;22.29;54.04
63009;BME280;49099;28.428;-16.488;2023-06-04T06:47:12;98409.44;;;22.32;54.13
63009;BME280;49099;28.428;-16.488;2023-06-04T06:49:42;98411.91;;;22.37;55.22
63009;BME280;49099;28.428;-16.488;2023-06-04T06:52:10;98408.41;;;22.37;54.83
63009;BME280;49099;28.428;-16.488;2023-06-04T06:54:37;98404.22;;;22.39;55.75
63009;BME280;49099;28.428;-16.488;2023-06-04T06:57:04;98411.66;;;22.42;55.76
63009;BME280;49099;28.428;-16.488;2023-06-04T06:59:35;98403.88;;;22.41;56.33
63009;BME280;49099;28.428;-16.488;2023-06-04T07:02:04;98413.22;;;22.43;57.82
63009;BME280;49099;28.428;-16.488;2023-06-04T07:04:32;98412.09;;;22.44;58.00
63009;BME280;49099;28.428;-16.488;2023-06-04T07:06:59;98403.63;;;22.46;58.12
63009;BME280;49099;28.428;-16.488;2023-06-04T07:09:26;98396.66;;;22.45;58.72
63009;BME280;49099;28.428;-16.488;2023-06-04T07:11:53;98404.00;;;22.44;59.88
63009;BME280;49099;28.428;-16.488;2023-06-04T07:14:20;98392.03;;;22.45;60.51
63009;BME280;49099;28.428;-16.488;2023-06-04T07:16:48;98378.88;;;22.44;60.46
63009;BME280;49099;28.428;-16.488;2023-06-04T07:19:15;98385.25;;;22.51;60.58
63009;BME280;49099;28.428;-16.488;2023-06-04T07:21:42;98377.59;;;22.53;59.39
63009;BME280;49099;28.428;-16.488;2023-06-04T07:24:09;98370.63;;;22.52;59.10
63009;BME280;49099;28.428;-16.488;2023-06-04T07:26:36;98371.16;;;22.58;58.45
63009;BME280;49099;28.428;-16.488;2023-06-04T07:29:04;98375.09;;;22.61;57.67
63009;BME280;49099;28.428;-16.488;2023-06-04T07:31:31;98363.91;;;22.62;57.07
63009;BME280;49099;28.428;-16.488;2023-06-04T07:33:58;98377.19;;;22.67;54.98
63009;BME280;49099;28.428;-16.488;2023-06-04T07:36:25;98378.06;;;22.71;54.19
63009;BME280;49099;28.428;-16.488;2023-06-04T07:38:52;98377.88;;;22.64;57.40
63009;BME280;49099;28.428;-16.488;2023-06-04T07:41:20;98378.50;;;22.58;58.70
63009;BME280;49099;28.428;-16.488;2023-06-04T07:43:47;98375.09;;;22.61;58.23
63009;BME280;49099;28.428;-16.488;2023-06-04T07:46:14;98371.16;;;22.58;57.39
63009;BME280;49099;28.428;-16.488;2023-06-04T07:48:45;98376.88;;;22.57;57.26
63009;BME280;49099;28.428;-16.488;2023-06-04T07:51:13;98381.34;;;22.49;57.77
63009;BME280;49099;28.428;-16.488;2023-06-04T07:53:41;98382.38;;;22.44;57.48
63009;BME280;49099;28.428;-16.488;2023-06-04T07:56:09;98395.44;;;22.42;57.20
63009;BME280;49099;28.428;-16.488;2023-06-04T07:58:36;98395.88;;;22.44;54.72
63009;BME280;49099;28.428;-16.488;2023-06-04T08:01:03;98389.09;;;22.50;55.36
63009;BME280;49099;28.428;-16.488;2023-06-04T08:03:31;98399.84;;;22.63;53.98
63009;BME280;49099;28.428;-16.488;2023-06-04T08:05:59;98397.94;;;22.63;53.01
63009;BME280;49099;28.428;-16.488;2023-06-04T08:08:30;98396.78;;;22.64;54.31
63009;BME280;49099;28.428;-16.488;2023-06-04T08:10:58;98404.41;;;22.74;54.90
63009;BME280;49099;28.428;-16.488;2023-06-04T08:13:25;98398.84;;;22.83;55.22
63009;BME280;49099;28.428;-16.488;2023-06-04T08:15:52;98397.94;;;22.91;55.15
63009;BME280;49099;28.428;-16.488;2023-06-04T08:18:20;98399.75;;;23.03;55.24
63009;BME280;49099;28.428;-16.488;2023-06-04T08:20:47;98405.72;;;23.08;56.28
63009;BME280;49099;28.428;-16.488;2023-06-04T08:23:14;98410.69;;;23.06;56.54
63009;BME280;49099;28.428;-16.488;2023-06-04T08:25:41;98412.25;;;23.07;55.08
63009;BME280;49099;28.428;-16.488;2023-06-04T08:28:09;98414.97;;;23.07;55.30
63009;BME280;49099;28.428;-16.488;2023-06-04T08:30:36;98414.72;;;23.13;53.96
63009;BME280;49099;28.428;-16.488;2023-06-04T08:33:03;98415.16;;;23.15;54.50
63009;BME280;49099;28.428;-16.488;2023-06-04T08:35:31;98414.72;;;23.13;52.25
63009;BME280;49099;28.428;-16.488;2023-06-04T08:37:58;98424.13;;;23.19;52.67
63009;BME280;49099;28.428;-16.488;2023-06-04T08:40:26;98421.94;;;23.24;52.51
63009;BME280;49099;28.428;-16.488;2023-06-04T08:42:55;98425.72;;;23.35;52.54
63009;BME280;49099;28.428;-16.488;2023-06-04T08:45:25;98416.97;;;23.42;52.36
63009;BME280;49099;28.428;-16.488;2023-06-04T08:47:56;98416.28;;;23.45;52.50
63009;BME280;49099;28.428;-16.488;2023-06-04T08:50:24;98417.13;;;23.49;55.42
63009;BME280;49099;28.428;-16.488;2023-06-04T08:52:53;98417.59;;;23.51;54.16
63009;BME280;49099;28.428;-16.488;2023-06-04T08:55:22;98414.09;;;23.51;55.67
63009;BME280;49099;28.428;-16.488;2023-06-04T08:57:49;98416.44;;;23.52;55.61
63009;BME280;49099;28.428;-16.488;2023-06-04T09:00:20;98416.16;;;23.57;54.79
63009;BME280;49099;28.428;-16.488;2023-06-04T09:02:49;98414.16;;;23.54;55.72
63009;BME280;49099;28.428;-16.488;2023-06-04T09:05:21;98417.78;;;23.43;56.19
63009;BME280;49099;28.428;-16.488;2023-06-04T09:07:53;98412.44;;;23.46;55.80
63009;BME280;49099;28.428;-16.488;2023-06-04T09:10:24;98424.75;;;23.44;55.64
63009;BME280;49099;28.428;-16.488;2023-06-04T09:12:57;98425.38;;;23.37;54.69
63009;BME280;49099;28.428;-16.488;2023-06-04T09:15:24;98423.63;;;23.29;55.26
63009;BME280;49099;28.428;-16.488;2023-06-04T09:17:52;98435.59;;;23.28;55.43
63009;BME280;49099;28.428;-16.488;2023-06-04T09:20:20;98439.56;;;23.34;55.81
63009;BME280;49099;28.428;-16.488;2023-06-04T09:22:48;98444.31;;;23.37;57.22
63009;BME280;49099;28.428;-16.488;2023-06-04T09:25:23;98441.59;;;23.37;57.01
63009;BME280;49099;28.428;-16.488;2023-06-04T09:27:54;98435.47;;;23.40;57.03
63009;BME280;49099;28.428;-16.488;2023-06-04T09:30:23;98438.88;;;23.53;57.69
63009;BME280;49099;28.428;-16.488;2023-06-04T09:32:50;98440.47;;;23.54;58.31
63009;BME280;49099;28.428;-16.488;2023-06-04T09:35:20;98449.94;;;23.60;57.80
63009;BME280;49099;28.428;-16.488;2023-06-04T09:37:55;98445.00;;;23.66;55.10
63009;BME280;49099;28.428;-16.488;2023-06-04T09:40:24;98442.22;;;23.78;54.22
63009;BME280;49099;28.428;-16.488;2023-06-04T09:42:51;98443.50;;;23.84;57.17
63009;BME280;49099;28.428;-16.488;2023-06-04T09:45:29;98451.91;;;23.79;57.87
63009;BME280;49099;28.428;-16.488;2023-06-04T09:47:59;98455.41;;;23.63;58.41
63009;BME280;49099;28.428;-16.488;2023-06-04T09:50:27;98460.72;;;23.44;59.98
63009;BME280;49099;28.428;-16.488;2023-06-04T09:52:55;98460.13;;;23.35;59.97
63009;BME280;49099;28.428;-16.488;2023-06-04T09:55:23;98445.75;;;23.19;60.64
63009;BME280;49099;28.428;-16.488;2023-06-04T09:57:51;98454.16;;;23.29;60.73
63009;BME280;49099;28.428;-16.488;2023-06-04T10:00:23;98463.94;;;23.34;60.22
63009;BME280;49099;28.428;-16.488;2023-06-04T10:02:56;98458.03;;;23.44;59.87
63009;BME280;49099;28.428;-16.488;2023-06-04T10:05:24;98453.47;;;23.48;59.72
63009;BME280;49099;28.428;-16.488;2023-06-04T10:07:52;98468.41;;;23.58;58.63
63009;BME280;49099;28.428;-16.488;2023-06-04T10:10:25;98468.53;;;23.61;56.06
63009;BME280;49099;28.428;-16.488;2023-06-04T10:13:02;98474.47;;;23.67;58.31
63009;BME280;49099;28.428;-16.488;2023-06-04T10:15:32;98469.72;;;23.64;58.63
63009;BME280;49099;28.428;-16.488;2023-06-04T10:18:02;98474.63;;;23.58;58.59
63009;BME280;49099;28.428;-16.488;2023-06-04T10:20:30;98463.63;;;23.51;60.22
63009;BME280;49099;28.428;-16.488;2023-06-04T10:22:58;98473.72;;;23.54;59.36
63009;BME280;49099;28.428;-16.488;2023-06-04T10:25:27;98470.59;;;23.52;59.59
63009;BME280;49099;28.428;-16.488;2023-06-04T10:27:55;98469.72;;;23.48;59.74
63009;BME280;49099;28.428;-16.488;2023-06-04T10:30:22;98477.56;;;23.53;59.58
63009;BME280;49099;28.428;-16.488;2023-06-04T10:32:50;98480.03;;;23.58;60.49
63009;BME280;49099;28.428;-16.488;2023-06-04T10:35:17;98476.88;;;23.56;60.67
63009;BME280;49099;28.428;-16.488;2023-06-04T10:38:10;98478.63;;;23.65;59.91
63009;BME280;49099;28.428;-16.488;2023-06-04T10:40:38;98481.28;;;23.61;59.59
63009;BME280;49099;28.428;-16.488;2023-06-04T10:43:10;98487.22;;;23.67;59.32
63009;BME280;49099;28.428;-16.488;2023-06-04T10:45:39;98485.72;;;23.69;58.65
63009;BME280;49099;28.428;-16.488;2023-06-04T10:48:08;98476.38;;;23.67;58.22
63009;BME280;49099;28.428;-16.488;2023-06-04T10:50:48;98480.06;;;23.74;57.43
63009;BME280;49099;28.428;-16.488;2023-06-04T10:53:17;98470.69;;;23.72;53.43
63009;BME280;49099;28.428;-16.488;2023-06-04T10:55:46;98466.66;;;23.66;57.56
63009;BME280;49099;28.428;-16.488;2023-06-04T10:58:13;98463.34;;;23.72;58.20
63009;BME280;49099;28.428;-16.488;2023-06-04T11:00:43;98468.06;;;23.91;57.58
63009;BME280;49099;28.428;-16.488;2023-06-04T11:03:13;98465.69;;;24.05;58.03
63009;BME280;49099;28.428;-16.488;2023-06-04T11:05:44;98465.28;;;24.23;53.89
63009;BME280;49099;28.428;-16.488;2023-06-04T11:08:14;98460.44;;;24.32;54.46
63009;BME280;49099;28.428;-16.488;2023-06-04T11:10:43;98457.03;;;24.35;56.18
63009;BME280;49099;28.428;-16.488;2023-06-04T11:13:11;98457.72;;;24.32;55.26
63009;BME280;49099;28.428;-16.488;2023-06-04T11:18:17;98458.34;;;24.25;54.21
63009;BME280;49099;28.428;-16.488;2023-06-04T11:20:46;98464.75;;;24.33;55.32
63009;BME280;49099;28.428;-16.488;2023-06-04T11:23:18;98465.16;;;24.35;55.47
63009;BME280;49099;28.428;-16.488;2023-06-04T11:25:45;98454.03;;;24.40;53.71
63009;BME280;49099;28.428;-16.488;2023-06-04T11:28:16;98452.97;;;24.64;48.33
63009;BME280;49099;28.428;-16.488;2023-06-04T11:31:00;98457.47;;;24.76;47.83
63009;BME280;49099;28.428;-16.488;2023-06-04T11:33:45;98462.38;;;24.89;45.55
63009;BME280;49099;28.428;-16.488;2023-06-04T11:36:26;98468.00;;;25.00;46.12
63009;BME280;49099;28.428;-16.488;2023-06-04T11:38:57;98468.59;;;25.09;49.53
63009;BME280;49099;28.428;-16.488;2023-06-04T11:41:32;98461.00;;;25.18;48.82
63009;BME280;49099;28.428;-16.488;2023-06-04T11:44:06;98459.72;;;25.12;49.79
63009;BME280;49099;28.428;-16.488;2023-06-04T11:46:40;98469.88;;;24.96;50.36
63009;BME280;49099;28.428;-16.488;2023-06-04T11:49:07;98467.25;;;24.80;51.83
63009;BME280;49099;28.428;-16.488;2023-06-04T11:51:35;98462.53;;;24.77;49.72
63009;BME280;49099;28.428;-16.488;2023-06-04T11:54:03;98467.97;;;24.77;51.59
63009;BME280;49099;28.428;-16.488;2023-06-04T11:56:30;98470.47;;;24.86;52.44
63009;BME280;49099;28.428;-16.488;2023-06-04T11:58:57;98469.31;;;24.87;53.12
63009;BME280;49099;28.428;-16.488;2023-06-04T12:01:25;98466.19;;;24.85;53.06
63009;BME280;49099;28.428;-16.488;2023-06-04T12:03:55;98456.75;;;24.79;49.64
63009;BME280;49099;28.428;-16.488;2023-06-04T12:06:22;98461.16;;;24.87;51.04
63009;BME280;49099;28.428;-16.488;2023-06-04T12:08:54;98447.00;;;24.97;53.13
63009;BME280;49099;28.428;-16.488;2023-06-04T12:11:31;98456.72;;;24.98;52.69
63009;BME280;49099;28.428;-16.488;2023-06-04T12:14:06;98459.00;;;24.96;52.00
63009;BME280;49099;28.428;-16.488;2023-06-04T12:16:34;98461.31;;;24.94;52.81
63009;BME280;49099;28.428;-16.488;2023-06-04T12:19:09;98452.31;;;25.09;52.62
63009;BME280;49099;28.428;-16.488;2023-06-04T12:21:38;98454.19;;;25.28;51.93
63009;BME280;49099;28.428;-16.488;2023-06-04T12:24:06;98457.09;;;25.39;51.06
63009;BME280;49099;28.428;-16.488;2023-06-04T12:26:35;98465.78;;;25.25;50.78
63009;BME280;49099;28.428;-16.488;2023-06-04T12:31:44;98466.56;;;25.25;53.06
63009;BME280;49099;28.428;-16.488;2023-06-04T12:34:15;98466.59;;;25.29;53.63
63009;BME280;49099;28.428;-16.488;2023-06-04T12:36:44;98471.19;;;25.25;52.18
63009;BME280;49099;28.428;-16.488;2023-06-04T12:39:11;98466.97;;;25.27;52.86
63009;BME280;49099;28.428;-16.488;2023-06-04T12:41:45;98458.25;;;25.38;51.98
63009;BME280;49099;28.428;-16.488;2023-06-04T12:44:12;98461.53;;;25.50;53.08
63009;BME280;49099;28.428;-16.488;2023-06-04T12:46:39;98463.47;;;25.50;53.46
63009;BME280;49099;28.428;-16.488;2023-06-04T12:49:07;98467.81;;;25.54;52.55
63009;BME280;49099;28.428;-16.488;2023-06-04T12:51:34;98473.00;;;25.63;52.65
63009;BME280;49099;28.428;-16.488;2023-06-04T12:54:01;98465.53;;;25.79;51.08
63009;BME280;49099;28.428;-16.488;2023-06-04T12:56:28;98466.00;;;25.85;50.36
63009;BME280;49099;28.428;-16.488;2023-06-04T12:58:55;98464.91;;;25.90;50.62
63009;BME280;49099;28.428;-16.488;2023-06-04T13:01:23;98462.38;;;26.04;50.26